New Century — V7GF8 — position and weather

sailwx.info

Track history (hours):
 
Tides and Currents Weather Stations Pressure Air Temp Water Temp Dewpoint Dewpoint Depression Visibility Wind Speed Wind Dir Waves Ship Positions

New Century

Last reported at 2017-May-28 08:44 UTC. Time now 2017-May-30 01:28 UTC.
Position N 36°01' W 005°14'.

Length 228 m; draft 7.6 m.

Type: Tanker. MMSI: 538002085.

Date/timePositionNaut miles runAvg speedWind from/ knotsBaromVisibWave heightAir tempDewpointWater temp
2017-May-28 08:44N 36°01' W 005°14'315.2
2017-May-28 08:30N 35°60' W 005°18'815.3
2017-May-28 08:01N 35°58' W 005°27'25811.9
2017-May-27 10:25N 38°12' W 010°03'2413.8
2017-May-27 08:39N 38°35' W 010°10'213.7
2017-May-27 08:30N 38°37' W 010°11'713.4
2017-May-27 07:57N 38°45' W 010°12'813.7
2017-May-27 07:24N 38°52' W 010°12'614.4
2017-May-27 07:00N 38°58' W 010°13'714.1
2017-May-27 06:30N 39°05' W 010°13'714.1
2017-May-27 06:00N 39°12' W 010°12'814.2
2017-May-27 05:26N 39°20' W 010°12'613.7
2017-May-27 05:00N 39°26' W 010°12'1813.9
2017-May-27 03:44N 39°43' W 010°12'61513.0
2017-May-25 04:21N 49°15' W 004°55'1210.4
2017-May-25 03:12N 49°21' W 004°38'210.7
2017-May-25 02:59N 49°22' W 004°36'510.9
2017-May-25 02:31N 49°25' W 004°29'1211.7
2017-May-25 01:28N 49°31' W 004°12'612.6
2017-May-25 01:00N 49°34' W 004°04'913.3
2017-May-25 00:21N 49°38' W 003°53'1614.0
2017-May-24 23:14N 49°46' W 003°33'314.2
2017-May-24 23:00N 49°48' W 003°28'713.9
2017-May-24 22:30N 49°52' W 003°19'713.5
2017-May-24 22:00N 49°55' W 003°10'612.9
2017-May-24 21:30N 49°58' W 003°01'912.1
2017-May-24 20:47N 50°00' W 002°48'411.3
2017-May-24 20:25N 50°01' W 002°42'610.6
2017-May-24 19:52N 50°03' W 002°33'14 9.3
2017-May-24 18:19N 50°07' W 002°12'3 8.7
2017-May-24 18:00N 50°07' W 002°07'5 8.9
2017-May-24 17:29N 50°08' W 002°00'10 9.9
2017-May-24 16:30N 50°11' W 001°46'5413.8
2017-May-24 12:35N 50°26' W 000°25'114.2
2017-May-24 12:29N 50°26' W 000°23'713.9
2017-May-24 12:00N 50°28' W 000°12'713.3
2017-May-24 11:30N 50°30' W 000°02'713.3
2017-May-24 11:00N 50°31' E 000°08'612.6
2017-May-24 10:30N 50°33' E 000°17'811.9
2017-May-24 09:51N 50°35' E 000°29'411.4
2017-May-24 09:28N 50°37' E 000°35'511.0
2017-May-24 09:00N 50°39' E 000°43'510.8
2017-May-24 08:30N 50°43' E 000°50'510.8
2017-May-24 08:00N 50°46' E 000°56'811.3
2017-May-24 07:20N 50°50' E 001°07'412.0
2017-May-24 07:00N 50°52' E 001°12'913.1
2017-May-24 06:20N 50°58' E 001°22'514.3
2017-May-24 06:00N 51°01' E 001°28'714.9
2017-May-24 05:30N 51°06' E 001°36'714.5
2017-May-24 05:00N 51°12' E 001°44'713.6
2017-May-24 04:30N 51°17' E 001°49'612.9
2017-May-24 04:00N 51°23' E 001°55'612.1
2017-May-24 03:30N 51°28' E 002°01'611.5
2017-May-24 03:00N 51°32' E 002°07'611.0
2017-May-24 02:30N 51°36' E 002°12'511.0
2017-May-24 02:00N 51°41' E 002°18'510.4
2017-May-24 01:30N 51°45' E 002°24'35 9.9
2017-May-23 22:00N 52°03' E 003°11'812.0
2017-May-23 21:19N 52°03' E 003°25'512.3
2017-May-23 20:53N 52°03' E 003°33'512.0
2017-May-23 20:27N 52°01' E 003°41'512.0
2017-May-23 20:00N 52°02' E 003°50'4 7.3
2017-May-23 19:30N 52°01' E 003°55'510.6
2017-May-23 19:00N 51°59' E 004°03'3 5.3
2017-May-23 18:30N 51°57' E 004°05'0 0.2
2017-May-23 17:59N 51°57' E 004°05'0 0.0
2017-May-23 17:26N 51°57' E 004°05'0 0.0
2017-May-23 16:59N 51°57' E 004°05'0 0.0
2017-May-23 16:29N 51°57' E 004°05'0 0.0
2017-May-23 15:59N 51°57' E 004°05'0 0.0
2017-May-23 15:29N 51°57' E 004°05'0 0.0
2017-May-23 14:59N 51°57' E 004°05'0 0.0
2017-May-23 14:29N 51°57' E 004°05'0 0.0
2017-May-23 13:29N 51°57' E 004°05'0 0.0
2017-May-23 12:59N 51°57' E 004°05'0 0.0
2017-May-23 12:29N 51°57' E 004°05'0 0.0
2017-May-23 11:59N 51°57' E 004°05'0 0.0
2017-May-23 11:29N 51°57' E 004°05'0 0.0
2017-May-23 10:59N 51°57' E 004°05'0 0.0
2017-May-23 10:29N 51°57' E 004°05'0 0.0
2017-May-23 09:59N 51°57' E 004°05'0 0.0
2017-May-23 09:29N 51°57' E 004°05'0 0.0
2017-May-23 08:59N 51°57' E 004°05'0 0.0
2017-May-23 08:29N 51°57' E 004°05'0 0.0
2017-May-23 07:59N 51°57' E 004°05'0 0.0
2017-May-23 07:29N 51°57' E 004°05'0 0.0
2017-May-23 06:53N 51°57' E 004°05'0 0.0
2017-May-23 06:29N 51°57' E 004°05'0 0.0
2017-May-23 05:59N 51°57' E 004°05'0 0.0
2017-May-23 05:29N 51°57' E 004°05'0 0.0
2017-May-23 04:56N 51°57' E 004°05'0 0.0
2017-May-23 04:29N 51°57' E 004°05'0 0.0
2017-May-23 03:58N 51°57' E 004°05'0 0.0
2017-May-23 03:28N 51°57' E 004°05'0 0.0
2017-May-23 02:58N 51°57' E 004°05'0 0.0
2017-May-23 02:28N 51°57' E 004°05'0 0.0
2017-May-23 01:58N 51°57' E 004°05'0 0.0
2017-May-23 01:28N 51°57' E 004°05'0 0.0
2017-May-23 00:58N 51°57' E 004°05'0 0.0
2017-May-23 00:29N 51°57' E 004°05'0 0.0
2017-May-22 23:59N 51°57' E 004°05'0 0.0
2017-May-22 23:29N 51°57' E 004°05'0 0.0
2017-May-22 22:58N 51°57' E 004°05'0 0.0
2017-May-22 22:29N 51°57' E 004°05'0 0.0
2017-May-22 21:53N 51°57' E 004°05'0 0.0
2017-May-22 21:28N 51°57' E 004°05'0 0.0
2017-May-22 20:59N 51°57' E 004°05'0 0.0
2017-May-22 20:29N 51°57' E 004°05'0 0.0
2017-May-22 19:47N 51°57' E 004°05'0 0.0
2017-May-22 19:29N 51°57' E 004°05'0 0.0
2017-May-22 18:59N 51°57' E 004°05'0 0.0
2017-May-22 18:29N 51°57' E 004°05'0 0.0
2017-May-22 17:59N 51°57' E 004°05'0 0.0
2017-May-22 17:29N 51°57' E 004°05'0 0.0
2017-May-22 16:59N 51°57' E 004°05'0 0.0
2017-May-22 16:29N 51°57' E 004°05'0 0.0
2017-May-22 15:59N 51°57' E 004°05'0 0.0
2017-May-22 15:29N 51°57' E 004°05'0 0.0
2017-May-22 14:58N 51°57' E 004°05'0 0.0
2017-May-22 13:58N 51°57' E 004°05'0 0.0
2017-May-22 13:28N 51°57' E 004°05'0 0.0
2017-May-22 12:58N 51°57' E 004°05'0 0.0
2017-May-22 12:25N 51°57' E 004°05'0 0.0
2017-May-22 11:58N 51°57' E 004°05'0 0.0
2017-May-22 11:28N 51°57' E 004°05'0 0.0
2017-May-22 10:58N 51°57' E 004°05'0 0.0
2017-May-22 10:28N 51°57' E 004°05'0 0.0
2017-May-22 09:58N 51°57' E 004°05'0 0.0
2017-May-22 09:28N 51°57' E 004°05'0 0.0
2017-May-22 08:58N 51°57' E 004°05'0 0.0
2017-May-22 08:22N 51°57' E 004°05'0 0.0
2017-May-22 07:58N 51°57' E 004°05'0 0.0
2017-May-22 07:28N 51°57' E 004°05'0 0.0
2017-May-22 06:58N 51°57' E 004°05'0 0.0
2017-May-22 06:28N 51°57' E 004°05'0 0.0
2017-May-22 05:58N 51°57' E 004°05'0 0.0
2017-May-22 05:28N 51°57' E 004°05'0 0.0
2017-May-22 04:58N 51°57' E 004°05'0 0.0
2017-May-22 04:28N 51°57' E 004°05'0 0.0
2017-May-22 03:58N 51°57' E 004°05'0 0.0
2017-May-22 03:28N 51°57' E 004°05'0 0.0
2017-May-22 02:58N 51°57' E 004°05'0 0.0
2017-May-22 02:28N 51°57' E 004°05'0 0.0
2017-May-22 01:58N 51°57' E 004°05'0 0.0
2017-May-22 01:28N 51°57' E 004°05'0 0.0
2017-May-22 00:58N 51°57' E 004°05'0 0.0
2017-May-22 00:28N 51°57' E 004°05'0 0.0
2017-May-21 23:58N 51°57' E 004°05'0 0.0
2017-May-21 23:28N 51°57' E 004°05'0 0.0
2017-May-21 22:58N 51°57' E 004°05'0 0.0
2017-May-21 22:28N 51°57' E 004°05'0 0.0
2017-May-21 21:58N 51°57' E 004°05'0 0.0
2017-May-21 21:28N 51°57' E 004°05'0 0.0
2017-May-21 20:58N 51°57' E 004°05'0 0.0
2017-May-21 20:28N 51°57' E 004°05'0 0.0
2017-May-21 19:58N 51°57' E 004°05'0 0.0
2017-May-21 19:28N 51°57' E 004°05'0 0.0
2017-May-21 18:58N 51°57' E 004°05'0 0.0
2017-May-21 18:28N 51°57' E 004°05'0 0.0
2017-May-21 17:58N 51°57' E 004°05'0 0.0
2017-May-21 17:28N 51°57' E 004°05'0 0.0
2017-May-21 16:58N 51°57' E 004°05'0 0.0
2017-May-21 16:28N 51°57' E 004°05'0 0.0
2017-May-21 16:01N 51°57' E 004°05'0 0.0
2017-May-21 15:31N 51°57' E 004°05'0 0.0
2017-May-21 15:00N 51°57' E 004°05'0 0.0
2017-May-21 14:00N 51°57' E 004°05'0 0.0
2017-May-21 13:30N 51°57' E 004°05'0 0.0
2017-May-21 13:00N 51°57' E 004°05'0 0.0
2017-May-21 12:30N 51°57' E 004°05'0 0.0
2017-May-21 12:00N 51°57' E 004°05'0 0.0
2017-May-21 11:30N 51°57' E 004°05'0 0.0
2017-May-21 11:00N 51°57' E 004°05'0 0.0
2017-May-21 10:30N 51°57' E 004°05'0 0.0
2017-May-21 10:00N 51°57' E 004°05'0 0.0
2017-May-21 09:30N 51°57' E 004°05'0 0.0
2017-May-21 09:00N 51°57' E 004°05'0 0.0
2017-May-21 08:30N 51°57' E 004°05'0 0.0
2017-May-21 08:00N 51°57' E 004°05'0 0.0
2017-May-21 07:30N 51°57' E 004°05'0 0.0
2017-May-21 07:00N 51°57' E 004°05'0 0.0
2017-May-21 06:30N 51°57' E 004°05'0 0.0
2017-May-21 05:58N 51°57' E 004°05'0 0.0
2017-May-21 05:30N 51°57' E 004°05'0 0.0
2017-May-21 05:00N 51°57' E 004°05'0 0.0
2017-May-21 04:30N 51°57' E 004°05'0 0.0
2017-May-21 03:58N 51°57' E 004°05'0 0.0
2017-May-21 03:30N 51°57' E 004°05'0 0.0
2017-May-21 02:57N 51°57' E 004°05'0 0.0
2017-May-21 02:28N 51°57' E 004°05'0 0.0
2017-May-21 02:00N 51°57' E 004°05'0 0.0
2017-May-21 01:30N 51°57' E 004°05'0 0.0
2017-May-21 01:00N 51°57' E 004°05'0 0.0
2017-May-21 00:27N 51°57' E 004°05'0 0.0
2017-May-21 00:00N 51°57' E 004°05'0 0.0
2017-May-20 23:30N 51°57' E 004°05'0 0.0
2017-May-20 23:00N 51°57' E 004°05'0 0.0
2017-May-20 22:27N 51°57' E 004°05'0 0.0
2017-May-20 22:00N 51°57' E 004°05'0 0.0
2017-May-20 21:30N 51°57' E 004°05'0 0.0
2017-May-20 21:00N 51°57' E 004°05'0 0.0
2017-May-20 20:30N 51°57' E 004°05'0 0.0
2017-May-20 20:00N 51°57' E 004°05'0 0.0
2017-May-20 19:30N 51°57' E 004°05'0 0.0
2017-May-20 19:00N 51°57' E 004°05'0 0.0
2017-May-20 18:30N 51°57' E 004°05'0 0.0
2017-May-20 18:00N 51°57' E 004°05'0 0.0
2017-May-20 17:30N 51°57' E 004°05'0 0.0
2017-May-20 17:00N 51°57' E 004°05'0 0.0
2017-May-20 16:30N 51°57' E 004°05'0 0.0
2017-May-20 16:00N 51°57' E 004°05'0 0.0
2017-May-20 15:30N 51°57' E 004°05'0 0.0
2017-May-20 15:00N 51°57' E 004°05'0 0.0
2017-May-20 14:30N 51°57' E 004°05'0 0.0
2017-May-20 13:30N 51°57' E 004°05'0 0.0
2017-May-20 13:00N 51°57' E 004°05'0 0.0
2017-May-20 12:30N 51°57' E 004°05'0 0.0
2017-May-20 12:00N 51°57' E 004°05'0 0.0
2017-May-20 11:30N 51°57' E 004°05'0 0.0
2017-May-20 11:00N 51°57' E 004°05'0 0.0
2017-May-20 10:30N 51°57' E 004°05'0 0.0
2017-May-20 10:00N 51°57' E 004°05'0 0.0
2017-May-20 09:30N 51°57' E 004°05'0 0.0
2017-May-20 09:00N 51°57' E 004°05'0 0.0
2017-May-20 08:30N 51°57' E 004°05'0 0.0
2017-May-20 08:00N 51°57' E 004°05'0 0.0
2017-May-20 07:30N 51°57' E 004°05'0 0.0
2017-May-20 07:00N 51°57' E 004°05'0 0.0
2017-May-20 06:30N 51°57' E 004°05'1 2.8
2017-May-20 06:00N 51°58' E 004°05'5 9.1
2017-May-20 05:30N 51°60' E 003°59'611.7
2017-May-20 05:00N 52°00' E 003°49'3 6.9
2017-May-20 04:30N 52°03' E 003°46'611.6
2017-May-20 04:00N 52°09' E 003°46'713.8
2017-May-20 03:30N 52°16' E 003°47'713.5
2017-May-20 03:00N 52°22' E 003°49'714.1
2017-May-20 02:30N 52°29' E 003°52'612.2
2017-May-20 02:00N 52°31' E 004°01'612.6
2017-May-20 01:30N 52°31' E 004°12'612.8
2017-May-20 01:00N 52°30' E 004°22'510.0
2017-May-20 00:30N 52°28' E 004°30'4 8.0
2017-May-20 00:00N 52°28' E 004°37'0 0.4
2017-May-19 23:30N 52°28' E 004°37'3 5.0
2017-May-19 23:00N 52°27' E 004°41'3 6.2
2017-May-19 22:30N 52°26' E 004°45'1 2.5
2017-May-19 22:00N 52°25' E 004°47'0 0.0
2017-May-19 21:30N 52°25' E 004°47'0 0.0
2017-May-19 21:00N 52°25' E 004°47'0 0.0
2017-May-19 20:21N 52°25' E 004°47'0 0.0
2017-May-19 20:00N 52°25' E 004°47'0 0.0
2017-May-19 19:30N 52°25' E 004°47'0 0.0
2017-May-19 18:57N 52°25' E 004°47'0 0.0
2017-May-19 18:30N 52°25' E 004°47'0 0.0
2017-May-19 18:00N 52°25' E 004°47'0 0.0
2017-May-19 17:27N 52°25' E 004°47'0 0.0
2017-May-19 17:00N 52°25' E 004°47'0 0.0
2017-May-19 16:27N 52°25' E 004°47'0 0.0
2017-May-19 16:00N 52°25' E 004°47'0 0.0
2017-May-19 15:27N 52°25' E 004°47'0 0.0
2017-May-19 15:00N 52°25' E 004°47'0 0.0
2017-May-19 14:00N 52°25' E 004°47'0 0.0
2017-May-19 13:27N 52°25' E 004°47'0 0.0
2017-May-19 13:00N 52°25' E 004°47'0 0.0
2017-May-19 12:27N 52°25' E 004°47'0 0.0
2017-May-19 11:57N 52°25' E 004°47'0 0.0
2017-May-19 11:30N 52°25' E 004°47'0 0.0
2017-May-19 11:00N 52°25' E 004°47'0 0.0
2017-May-19 10:27N 52°25' E 004°47'0 0.0
2017-May-19 09:57N 52°25' E 004°47'0 0.0
2017-May-19 09:27N 52°25' E 004°47'0 0.0
2017-May-19 08:57N 52°25' E 004°47'0 0.0
2017-May-19 08:27N 52°25' E 004°47'0 0.0
2017-May-19 08:00N 52°25' E 004°47'0 0.0
2017-May-19 07:21N 52°25' E 004°47'0 0.0
2017-May-19 07:00N 52°25' E 004°47'0 0.0
2017-May-19 06:27N 52°25' E 004°47'0 0.0
2017-May-19 06:00N 52°25' E 004°47'0 0.0
2017-May-19 05:27N 52°25' E 004°47'0 0.0
2017-May-19 05:00N 52°25' E 004°47'0 0.0
2017-May-19 04:21N 52°25' E 004°47'0 0.0
2017-May-19 04:00N 52°25' E 004°47'0 0.0
2017-May-19 03:30N 52°25' E 004°47'0 0.0
2017-May-19 03:00N 52°25' E 004°47'0 0.0
2017-May-19 02:24N 52°25' E 004°47'0 0.0
2017-May-19 02:00N 52°25' E 004°47'0 0.0
2017-May-19 01:30N 52°25' E 004°47'0 0.0
2017-May-19 01:00N 52°25' E 004°47'0 0.0
2017-May-19 00:21N 52°25' E 004°47'0 0.0
2017-May-18 23:54N 52°25' E 004°47'0 0.0
2017-May-18 23:30N 52°25' E 004°47'0 0.0
2017-May-18 23:00N 52°25' E 004°47'0 0.0
2017-May-18 22:30N 52°25' E 004°47'0 0.0
2017-May-18 21:59N 52°25' E 004°47'0 0.0
2017-May-18 21:29N 52°25' E 004°47'0 0.0
2017-May-18 20:59N 52°25' E 004°47'0 0.0
2017-May-18 20:29N 52°25' E 004°47'0 0.0
2017-May-18 19:56N 52°25' E 004°47'0 0.0
2017-May-18 19:26N 52°25' E 004°47'0 0.0
2017-May-18 18:59N 52°25' E 004°47'0 0.0
2017-May-18 18:29N 52°25' E 004°47'0 0.0
2017-May-18 17:59N 52°25' E 004°47'0 0.0
2017-May-18 17:26N 52°25' E 004°47'0 0.0
2017-May-18 16:53N 52°25' E 004°47'0 0.0
2017-May-18 16:29N 52°25' E 004°47'0 0.0
2017-May-18 15:29N 52°25' E 004°47'0 0.0
2017-May-18 14:56N 52°25' E 004°47'0 0.0
2017-May-18 13:59N 52°25' E 004°47'0 0.0
2017-May-18 13:29N 52°25' E 004°47'0 0.0
2017-May-18 12:59N 52°25' E 004°47'0 0.0
2017-May-18 12:29N 52°25' E 004°47'0 0.0
2017-May-18 11:59N 52°25' E 004°47'0 0.0
2017-May-18 11:29N 52°25' E 004°47'0 0.0
2017-May-18 10:59N 52°25' E 004°47'0 0.0
2017-May-18 10:26N 52°25' E 004°47'0 0.0
2017-May-18 09:59N 52°25' E 004°47'0 0.0
2017-May-18 09:29N 52°25' E 004°47'0 0.0
2017-May-18 08:59N 52°25' E 004°47'  
Track history (hours):
 
Tides and Currents Weather Stations Pressure Air Temp Water Temp Dewpoint Dewpoint Depression Visibility Wind Speed Wind Dir Waves Ship Positions

New Century

Last reported at 2017-May-28 08:44 UTC. Time now 2017-May-30 01:28 UTC.
Position N 36°01' W 005°14'.

Length 228 m; draft 7.6 m.

Type: Tanker. MMSI: 538002085.

Date/timePositionNaut miles runAvg speedWind from/ knotsBaromVisibWave heightAir tempDewpointWater temp
2017-May-28 08:44N 36°01' W 005°14'315.2
2017-May-28 08:30N 35°60' W 005°18'815.3
2017-May-28 08:01N 35°58' W 005°27'25811.9
2017-May-27 10:25N 38°12' W 010°03'2413.8
2017-May-27 08:39N 38°35' W 010°10'213.7
2017-May-27 08:30N 38°37' W 010°11'713.4
2017-May-27 07:57N 38°45' W 010°12'813.7
2017-May-27 07:24N 38°52' W 010°12'614.4
2017-May-27 07:00N 38°58' W 010°13'714.1
2017-May-27 06:30N 39°05' W 010°13'714.1
2017-May-27 06:00N 39°12' W 010°12'814.2
2017-May-27 05:26N 39°20' W 010°12'613.7
2017-May-27 05:00N 39°26' W 010°12'1813.9
2017-May-27 03:44N 39°43' W 010°12'61513.0
2017-May-25 04:21N 49°15' W 004°55'1210.4
2017-May-25 03:12N 49°21' W 004°38'210.7
2017-May-25 02:59N 49°22' W 004°36'510.9
2017-May-25 02:31N 49°25' W 004°29'1211.7
2017-May-25 01:28N 49°31' W 004°12'612.6
2017-May-25 01:00N 49°34' W 004°04'913.3
2017-May-25 00:21N 49°38' W 003°53'1614.0
2017-May-24 23:14N 49°46' W 003°33'314.2
2017-May-24 23:00N 49°48' W 003°28'713.9
2017-May-24 22:30N 49°52' W 003°19'713.5
2017-May-24 22:00N 49°55' W 003°10'612.9
2017-May-24 21:30N 49°58' W 003°01'912.1
2017-May-24 20:47N 50°00' W 002°48'411.3
2017-May-24 20:25N 50°01' W 002°42'610.6
2017-May-24 19:52N 50°03' W 002°33'14 9.3
2017-May-24 18:19N 50°07' W 002°12'3 8.7
2017-May-24 18:00N 50°07' W 002°07'5 8.9
2017-May-24 17:29N 50°08' W 002°00'10 9.9
2017-May-24 16:30N 50°11' W 001°46'5413.8
2017-May-24 12:35N 50°26' W 000°25'114.2
2017-May-24 12:29N 50°26' W 000°23'713.9
2017-May-24 12:00N 50°28' W 000°12'713.3
2017-May-24 11:30N 50°30' W 000°02'713.3
2017-May-24 11:00N 50°31' E 000°08'612.6
2017-May-24 10:30N 50°33' E 000°17'811.9
2017-May-24 09:51N 50°35' E 000°29'411.4
2017-May-24 09:28N 50°37' E 000°35'511.0
2017-May-24 09:00N 50°39' E 000°43'510.8
2017-May-24 08:30N 50°43' E 000°50'510.8
2017-May-24 08:00N 50°46' E 000°56'811.3
2017-May-24 07:20N 50°50' E 001°07'412.0
2017-May-24 07:00N 50°52' E 001°12'913.1
2017-May-24 06:20N 50°58' E 001°22'514.3
2017-May-24 06:00N 51°01' E 001°28'714.9
2017-May-24 05:30N 51°06' E 001°36'714.5
2017-May-24 05:00N 51°12' E 001°44'713.6
2017-May-24 04:30N 51°17' E 001°49'612.9
2017-May-24 04:00N 51°23' E 001°55'612.1
2017-May-24 03:30N 51°28' E 002°01'611.5
2017-May-24 03:00N 51°32' E 002°07'611.0
2017-May-24 02:30N 51°36' E 002°12'511.0
2017-May-24 02:00N 51°41' E 002°18'510.4
2017-May-24 01:30N 51°45' E 002°24'35 9.9
2017-May-23 22:00N 52°03' E 003°11'812.0
2017-May-23 21:19N 52°03' E 003°25'512.3
2017-May-23 20:53N 52°03' E 003°33'512.0
2017-May-23 20:27N 52°01' E 003°41'512.0
2017-May-23 20:00N 52°02' E 003°50'4 7.3
2017-May-23 19:30N 52°01' E 003°55'510.6
2017-May-23 19:00N 51°59' E 004°03'3 5.3
2017-May-23 18:30N 51°57' E 004°05'0 0.2
2017-May-23 17:59N 51°57' E 004°05'0 0.0
2017-May-23 17:26N 51°57' E 004°05'0 0.0
2017-May-23 16:59N 51°57' E 004°05'0 0.0
2017-May-23 16:29N 51°57' E 004°05'0 0.0
2017-May-23 15:59N 51°57' E 004°05'0 0.0
2017-May-23 15:29N 51°57' E 004°05'0 0.0
2017-May-23 14:59N 51°57' E 004°05'0 0.0
2017-May-23 14:29N 51°57' E 004°05'0 0.0
2017-May-23 13:29N 51°57' E 004°05'0 0.0
2017-May-23 12:59N 51°57' E 004°05'0 0.0
2017-May-23 12:29N 51°57' E 004°05'0 0.0
2017-May-23 11:59N 51°57' E 004°05'0 0.0
2017-May-23 11:29N 51°57' E 004°05'0 0.0
2017-May-23 10:59N 51°57' E 004°05'0 0.0
2017-May-23 10:29N 51°57' E 004°05'0 0.0
2017-May-23 09:59N 51°57' E 004°05'0 0.0
2017-May-23 09:29N 51°57' E 004°05'0 0.0
2017-May-23 08:59N 51°57' E 004°05'0 0.0
2017-May-23 08:29N 51°57' E 004°05'0 0.0
2017-May-23 07:59N 51°57' E 004°05'0 0.0
2017-May-23 07:29N 51°57' E 004°05'0 0.0
2017-May-23 06:53N 51°57' E 004°05'0 0.0
2017-May-23 06:29N 51°57' E 004°05'0 0.0
2017-May-23 05:59N 51°57' E 004°05'0 0.0
2017-May-23 05:29N 51°57' E 004°05'0 0.0
2017-May-23 04:56N 51°57' E 004°05'0 0.0
2017-May-23 04:29N 51°57' E 004°05'0 0.0
2017-May-23 03:58N 51°57' E 004°05'0 0.0
2017-May-23 03:28N 51°57' E 004°05'0 0.0
2017-May-23 02:58N 51°57' E 004°05'0 0.0
2017-May-23 02:28N 51°57' E 004°05'0 0.0
2017-May-23 01:58N 51°57' E 004°05'0 0.0
2017-May-23 01:28N 51°57' E 004°05'0 0.0
2017-May-23 00:58N 51°57' E 004°05'0 0.0
2017-May-23 00:29N 51°57' E 004°05'0 0.0
2017-May-22 23:59N 51°57' E 004°05'0 0.0
2017-May-22 23:29N 51°57' E 004°05'0 0.0
2017-May-22 22:58N 51°57' E 004°05'0 0.0
2017-May-22 22:29N 51°57' E 004°05'0 0.0
2017-May-22 21:53N 51°57' E 004°05'0 0.0
2017-May-22 21:28N 51°57' E 004°05'0 0.0
2017-May-22 20:59N 51°57' E 004°05'0 0.0
2017-May-22 20:29N 51°57' E 004°05'0 0.0
2017-May-22 19:47N 51°57' E 004°05'0 0.0
2017-May-22 19:29N 51°57' E 004°05'0 0.0
2017-May-22 18:59N 51°57' E 004°05'0 0.0
2017-May-22 18:29N 51°57' E 004°05'0 0.0
2017-May-22 17:59N 51°57' E 004°05'0 0.0
2017-May-22 17:29N 51°57' E 004°05'0 0.0
2017-May-22 16:59N 51°57' E 004°05'0 0.0
2017-May-22 16:29N 51°57' E 004°05'0 0.0
2017-May-22 15:59N 51°57' E 004°05'0 0.0
2017-May-22 15:29N 51°57' E 004°05'0 0.0
2017-May-22 14:58N 51°57' E 004°05'0 0.0
2017-May-22 13:58N 51°57' E 004°05'0 0.0
2017-May-22 13:28N 51°57' E 004°05'0 0.0
2017-May-22 12:58N 51°57' E 004°05'0 0.0
2017-May-22 12:25N 51°57' E 004°05'0 0.0
2017-May-22 11:58N 51°57' E 004°05'0 0.0
2017-May-22 11:28N 51°57' E 004°05'0 0.0
2017-May-22 10:58N 51°57' E 004°05'0 0.0
2017-May-22 10:28N 51°57' E 004°05'0 0.0
2017-May-22 09:58N 51°57' E 004°05'0 0.0
2017-May-22 09:28N 51°57' E 004°05'0 0.0
2017-May-22 08:58N 51°57' E 004°05'0 0.0
2017-May-22 08:22N 51°57' E 004°05'0 0.0
2017-May-22 07:58N 51°57' E 004°05'0 0.0
2017-May-22 07:28N 51°57' E 004°05'0 0.0
2017-May-22 06:58N 51°57' E 004°05'0 0.0
2017-May-22 06:28N 51°57' E 004°05'0 0.0
2017-May-22 05:58N 51°57' E 004°05'0 0.0
2017-May-22 05:28N 51°57' E 004°05'0 0.0
2017-May-22 04:58N 51°57' E 004°05'0 0.0
2017-May-22 04:28N 51°57' E 004°05'0 0.0
2017-May-22 03:58N 51°57' E 004°05'0 0.0
2017-May-22 03:28N 51°57' E 004°05'0 0.0
2017-May-22 02:58N 51°57' E 004°05'0 0.0
2017-May-22 02:28N 51°57' E 004°05'0 0.0
2017-May-22 01:58N 51°57' E 004°05'0 0.0
2017-May-22 01:28N 51°57' E 004°05'0 0.0
2017-May-22 00:58N 51°57' E 004°05'0 0.0
2017-May-22 00:28N 51°57' E 004°05'0 0.0
2017-May-21 23:58N 51°57' E 004°05'0 0.0
2017-May-21 23:28N 51°57' E 004°05'0 0.0
2017-May-21 22:58N 51°57' E 004°05'0 0.0
2017-May-21 22:28N 51°57' E 004°05'0 0.0
2017-May-21 21:58N 51°57' E 004°05'0 0.0
2017-May-21 21:28N 51°57' E 004°05'0 0.0
2017-May-21 20:58N 51°57' E 004°05'0 0.0
2017-May-21 20:28N 51°57' E 004°05'0 0.0
2017-May-21 19:58N 51°57' E 004°05'0 0.0
2017-May-21 19:28N 51°57' E 004°05'0 0.0
2017-May-21 18:58N 51°57' E 004°05'0 0.0
2017-May-21 18:28N 51°57' E 004°05'0 0.0
2017-May-21 17:58N 51°57' E 004°05'0 0.0
2017-May-21 17:28N 51°57' E 004°05'0 0.0
2017-May-21 16:58N 51°57' E 004°05'0 0.0
2017-May-21 16:28N 51°57' E 004°05'0 0.0
2017-May-21 16:01N 51°57' E 004°05'0 0.0
2017-May-21 15:31N 51°57' E 004°05'0 0.0
2017-May-21 15:00N 51°57' E 004°05'0 0.0
2017-May-21 14:00N 51°57' E 004°05'0 0.0
2017-May-21 13:30N 51°57' E 004°05'0 0.0
2017-May-21 13:00N 51°57' E 004°05'0 0.0
2017-May-21 12:30N 51°57' E 004°05'0 0.0
2017-May-21 12:00N 51°57' E 004°05'0 0.0
2017-May-21 11:30N 51°57' E 004°05'0 0.0
2017-May-21 11:00N 51°57' E 004°05'0 0.0
2017-May-21 10:30N 51°57' E 004°05'0 0.0
2017-May-21 10:00N 51°57' E 004°05'0 0.0
2017-May-21 09:30N 51°57' E 004°05'0 0.0
2017-May-21 09:00N 51°57' E 004°05'0 0.0
2017-May-21 08:30N 51°57' E 004°05'0 0.0
2017-May-21 08:00N 51°57' E 004°05'0 0.0
2017-May-21 07:30N 51°57' E 004°05'0 0.0
2017-May-21 07:00N 51°57' E 004°05'0 0.0
2017-May-21 06:30N 51°57' E 004°05'0 0.0
2017-May-21 05:58N 51°57' E 004°05'0 0.0
2017-May-21 05:30N 51°57' E 004°05'0 0.0
2017-May-21 05:00N 51°57' E 004°05'0 0.0
2017-May-21 04:30N 51°57' E 004°05'0 0.0
2017-May-21 03:58N 51°57' E 004°05'0 0.0
2017-May-21 03:30N 51°57' E 004°05'0 0.0
2017-May-21 02:57N 51°57' E 004°05'0 0.0
2017-May-21 02:28N 51°57' E 004°05'0 0.0
2017-May-21 02:00N 51°57' E 004°05'0 0.0
2017-May-21 01:30N 51°57' E 004°05'0 0.0
2017-May-21 01:00N 51°57' E 004°05'0 0.0
2017-May-21 00:27N 51°57' E 004°05'0 0.0
2017-May-21 00:00N 51°57' E 004°05'0 0.0
2017-May-20 23:30N 51°57' E 004°05'0 0.0
2017-May-20 23:00N 51°57' E 004°05'0 0.0
2017-May-20 22:27N 51°57' E 004°05'0 0.0
2017-May-20 22:00N 51°57' E 004°05'0 0.0
2017-May-20 21:30N 51°57' E 004°05'0 0.0
2017-May-20 21:00N 51°57' E 004°05'0 0.0
2017-May-20 20:30N 51°57' E 004°05'0 0.0
2017-May-20 20:00N 51°57' E 004°05'0 0.0
2017-May-20 19:30N 51°57' E 004°05'0 0.0
2017-May-20 19:00N 51°57' E 004°05'0 0.0
2017-May-20 18:30N 51°57' E 004°05'0 0.0
2017-May-20 18:00N 51°57' E 004°05'0 0.0
2017-May-20 17:30N 51°57' E 004°05'0 0.0
2017-May-20 17:00N 51°57' E 004°05'0 0.0
2017-May-20 16:30N 51°57' E 004°05'0 0.0
2017-May-20 16:00N 51°57' E 004°05'0 0.0
2017-May-20 15:30N 51°57' E 004°05'0 0.0
2017-May-20 15:00N 51°57' E 004°05'0 0.0
2017-May-20 14:30N 51°57' E 004°05'0 0.0
2017-May-20 13:30N 51°57' E 004°05'0 0.0
2017-May-20 13:00N 51°57' E 004°05'0 0.0
2017-May-20 12:30N 51°57' E 004°05'0 0.0
2017-May-20 12:00N 51°57' E 004°05'0 0.0
2017-May-20 11:30N 51°57' E 004°05'0 0.0
2017-May-20 11:00N 51°57' E 004°05'0 0.0
2017-May-20 10:30N 51°57' E 004°05'0 0.0
2017-May-20 10:00N 51°57' E 004°05'0 0.0
2017-May-20 09:30N 51°57' E 004°05'0 0.0
2017-May-20 09:00N 51°57' E 004°05'0 0.0
2017-May-20 08:30N 51°57' E 004°05'0 0.0
2017-May-20 08:00N 51°57' E 004°05'0 0.0
2017-May-20 07:30N 51°57' E 004°05'0 0.0
2017-May-20 07:00N 51°57' E 004°05'0 0.0
2017-May-20 06:30N 51°57' E 004°05'1 2.8
2017-May-20 06:00N 51°58' E 004°05'5 9.1
2017-May-20 05:30N 51°60' E 003°59'611.7
2017-May-20 05:00N 52°00' E 003°49'3 6.9
2017-May-20 04:30N 52°03' E 003°46'611.6
2017-May-20 04:00N 52°09' E 003°46'713.8
2017-May-20 03:30N 52°16' E 003°47'713.5
2017-May-20 03:00N 52°22' E 003°49'714.1
2017-May-20 02:30N 52°29' E 003°52'612.2
2017-May-20 02:00N 52°31' E 004°01'612.6
2017-May-20 01:30N 52°31' E 004°12'612.8
2017-May-20 01:00N 52°30' E 004°22'510.0
2017-May-20 00:30N 52°28' E 004°30'4 8.0
2017-May-20 00:00N 52°28' E 004°37'0 0.4
2017-May-19 23:30N 52°28' E 004°37'3 5.0
2017-May-19 23:00N 52°27' E 004°41'3 6.2
2017-May-19 22:30N 52°26' E 004°45'1 2.5
2017-May-19 22:00N 52°25' E 004°47'0 0.0
2017-May-19 21:30N 52°25' E 004°47'0 0.0
2017-May-19 21:00N 52°25' E 004°47'0 0.0
2017-May-19 20:21N 52°25' E 004°47'0 0.0
2017-May-19 20:00N 52°25' E 004°47'0 0.0
2017-May-19 19:30N 52°25' E 004°47'0 0.0
2017-May-19 18:57N 52°25' E 004°47'0 0.0
2017-May-19 18:30N 52°25' E 004°47'0 0.0
2017-May-19 18:00N 52°25' E 004°47'0 0.0
2017-May-19 17:27N 52°25' E 004°47'0 0.0
2017-May-19 17:00N 52°25' E 004°47'0 0.0
2017-May-19 16:27N 52°25' E 004°47'0 0.0
2017-May-19 16:00N 52°25' E 004°47'0 0.0
2017-May-19 15:27N 52°25' E 004°47'0 0.0
2017-May-19 15:00N 52°25' E 004°47'0 0.0
2017-May-19 14:00N 52°25' E 004°47'0 0.0
2017-May-19 13:27N 52°25' E 004°47'0 0.0
2017-May-19 13:00N 52°25' E 004°47'0 0.0
2017-May-19 12:27N 52°25' E 004°47'0 0.0
2017-May-19 11:57N 52°25' E 004°47'0 0.0
2017-May-19 11:30N 52°25' E 004°47'0 0.0
2017-May-19 11:00N 52°25' E 004°47'0 0.0
2017-May-19 10:27N 52°25' E 004°47'0 0.0
2017-May-19 09:57N 52°25' E 004°47'0 0.0
2017-May-19 09:27N 52°25' E 004°47'0 0.0
2017-May-19 08:57N 52°25' E 004°47'0 0.0
2017-May-19 08:27N 52°25' E 004°47'0 0.0
2017-May-19 08:00N 52°25' E 004°47'0 0.0
2017-May-19 07:21N 52°25' E 004°47'0 0.0
2017-May-19 07:00N 52°25' E 004°47'0 0.0
2017-May-19 06:27N 52°25' E 004°47'0 0.0
2017-May-19 06:00N 52°25' E 004°47'0 0.0
2017-May-19 05:27N 52°25' E 004°47'0 0.0
2017-May-19 05:00N 52°25' E 004°47'0 0.0
2017-May-19 04:21N 52°25' E 004°47'0 0.0
2017-May-19 04:00N 52°25' E 004°47'0 0.0
2017-May-19 03:30N 52°25' E 004°47'0 0.0
2017-May-19 03:00N 52°25' E 004°47'0 0.0
2017-May-19 02:24N 52°25' E 004°47'0 0.0
2017-May-19 02:00N 52°25' E 004°47'0 0.0
2017-May-19 01:30N 52°25' E 004°47'0 0.0
2017-May-19 01:00N 52°25' E 004°47'0 0.0
2017-May-19 00:21N 52°25' E 004°47'0 0.0
2017-May-18 23:54N 52°25' E 004°47'0 0.0
2017-May-18 23:30N 52°25' E 004°47'0 0.0
2017-May-18 23:00N 52°25' E 004°47'0 0.0
2017-May-18 22:30N 52°25' E 004°47'0 0.0
2017-May-18 21:59N 52°25' E 004°47'0 0.0
2017-May-18 21:29N 52°25' E 004°47'0 0.0
2017-May-18 20:59N 52°25' E 004°47'0 0.0
2017-May-18 20:29N 52°25' E 004°47'0 0.0
2017-May-18 19:56N 52°25' E 004°47'0 0.0
2017-May-18 19:26N 52°25' E 004°47'0 0.0
2017-May-18 18:59N 52°25' E 004°47'0 0.0
2017-May-18 18:29N 52°25' E 004°47'0 0.0
2017-May-18 17:59N 52°25' E 004°47'0 0.0
2017-May-18 17:26N 52°25' E 004°47'0 0.0
2017-May-18 16:53N 52°25' E 004°47'0 0.0
2017-May-18 16:29N 52°25' E 004°47'0 0.0
2017-May-18 15:29N 52°25' E 004°47'0 0.0
2017-May-18 14:56N 52°25' E 004°47'0 0.0
2017-May-18 13:59N 52°25' E 004°47'0 0.0
2017-May-18 13:29N 52°25' E 004°47'0 0.0
2017-May-18 12:59N 52°25' E 004°47'0 0.0
2017-May-18 12:29N 52°25' E 004°47'0 0.0
2017-May-18 11:59N 52°25' E 004°47'0 0.0
2017-May-18 11:29N 52°25' E 004°47'0 0.0
2017-May-18 10:59N 52°25' E 004°47'0 0.0
2017-May-18 10:26N 52°25' E 004°47'0 0.0
2017-May-18 09:59N 52°25' E 004°47'0 0.0
2017-May-18 09:29N 52°25' E 004°47'0 0.0
2017-May-18 08:59N 52°25' E 004°47'  

Dump ship's entire track history